sensor_id;sensor_type;location;lat;lon;timestamp;temperature;humidity
7378;DHT22;3730;50.856;12.776;2023-04-15T00:00:26;6.60;99.90
7378;DHT22;3730;50.856;12.776;2023-04-15T00:02:53;6.50;99.90
7378;DHT22;3730;50.856;12.776;2023-04-15T00:05:19;7.10;99.90
7378;DHT22;3730;50.856;12.776;2023-04-15T00:07:45;6.60;99.90
7378;DHT22;3730;50.856;12.776;2023-04-15T00:10:12;6.60;99.90
7378;DHT22;3730;50.856;12.776;2023-04-15T00:12:38;8.30;99.90
7378;DHT22;3730;50.856;12.776;2023-04-15T00:15:06;6.50;99.90
7378;DHT22;3730;50.856;12.776;2023-04-15T00:17:32;6.50;99.90
7378;DHT22;3730;50.856;12.776;2023-04-15T00:19:58;6.50;99.90
7378;DHT22;3730;50.856;12.776;2023-04-15T00:22:25;6.50;99.90
7378;DHT22;3730;50.856;12.776;2023-04-15T00:24:52;6.50;99.90
7378;DHT22;3730;50.856;12.776;2023-04-15T00:27:18;7.10;99.90
7378;DHT22;3730;50.856;12.776;2023-04-15T00:29:43;7.40;99.90
7378;DHT22;3730;50.856;12.776;2023-04-15T00:32:09;6.30;99.90
7378;DHT22;3730;50.856;12.776;2023-04-15T00:34:35;6.20;99.90
7378;DHT22;3730;50.856;12.776;2023-04-15T00:37:01;6.10;99.90
7378;DHT22;3730;50.856;12.776;2023-04-15T00:39:26;6.10;99.90
7378;DHT22;3730;50.856;12.776;2023-04-15T00:41:52;6.90;99.90
7378;DHT22;3730;50.856;12.776;2023-04-15T00:44:18;8.20;99.90
7378;DHT22;3730;50.856;12.776;2023-04-15T00:46:44;6.30;99.90
7378;DHT22;3730;50.856;12.776;2023-04-15T00:49:11;7.30;99.90
7378;DHT22;3730;50.856;12.776;2023-04-15T00:51:37;6.30;99.90
7378;DHT22;3730;50.856;12.776;2023-04-15T00:54:03;6.30;99.90
7378;DHT22;3730;50.856;12.776;2023-04-15T00:56:29;6.40;99.90
7378;DHT22;3730;50.856;12.776;2023-04-15T00:58:56;6.30;99.90
7378;DHT22;3730;50.856;12.776;2023-04-15T01:01:23;6.30;99.90
7378;DHT22;3730;50.856;12.776;2023-04-15T01:03:50;6.30;99.90
7378;DHT22;3730;50.856;12.776;2023-04-15T01:06:16;8.00;99.90
7378;DHT22;3730;50.856;12.776;2023-04-15T01:08:43;6.20;99.90
7378;DHT22;3730;50.856;12.776;2023-04-15T01:11:10;6.40;99.90
7378;DHT22;3730;50.856;12.776;2023-04-15T01:13:37;6.20;99.90
7378;DHT22;3730;50.856;12.776;2023-04-15T01:16:03;6.20;99.90
7378;DHT22;3730;50.856;12.776;2023-04-15T01:18:29;6.20;99.90
7378;DHT22;3730;50.856;12.776;2023-04-15T01:20:55;6.10;99.90
7378;DHT22;3730;50.856;12.776;2023-04-15T01:23:21;6.30;99.90
7378;DHT22;3730;50.856;12.776;2023-04-15T01:25:48;9.00;99.90
7378;DHT22;3730;50.856;12.776;2023-04-15T01:28:15;7.70;99.90
7378;DHT22;3730;50.856;12.776;2023-04-15T01:30:41;7.20;99.90
7378;DHT22;3730;50.856;12.776;2023-04-15T01:33:07;6.50;99.90
7378;DHT22;3730;50.856;12.776;2023-04-15T01:35:33;6.40;99.90
7378;DHT22;3730;50.856;12.776;2023-04-15T01:38:07;8.40;99.90
7378;DHT22;3730;50.856;12.776;2023-04-15T01:40:33;6.60;99.90
7378;DHT22;3730;50.856;12.776;2023-04-15T01:43:00;6.10;99.90
7378;DHT22;3730;50.856;12.776;2023-04-15T01:45:26;6.20;99.90
7378;DHT22;3730;50.856;12.776;2023-04-15T01:47:52;6.20;99.90
7378;DHT22;3730;50.856;12.776;2023-04-15T01:50:18;7.10;99.90
7378;DHT22;3730;50.856;12.776;2023-04-15T01:52:45;6.90;99.90
7378;DHT22;3730;50.856;12.776;2023-04-15T01:55:11;6.30;99.90
7378;DHT22;3730;50.856;12.776;2023-04-15T01:57:37;6.50;99.90
7378;DHT22;3730;50.856;12.776;2023-04-15T02:00:03;6.80;99.90
7378;DHT22;3730;50.856;12.776;2023-04-15T02:02:29;6.30;99.90
7378;DHT22;3730;50.856;12.776;2023-04-15T02:04:55;6.30;99.90
7378;DHT22;3730;50.856;12.776;2023-04-15T02:07:21;7.00;99.90
7378;DHT22;3730;50.856;12.776;2023-04-15T02:09:46;6.40;99.90
7378;DHT22;3730;50.856;12.776;2023-04-15T02:12:12;6.80;99.90
7378;DHT22;3730;50.856;12.776;2023-04-15T02:14:38;6.50;99.90
7378;DHT22;3730;50.856;12.776;2023-04-15T02:17:04;6.10;99.90
7378;DHT22;3730;50.856;12.776;2023-04-15T02:19:35;7.10;99.90
7378;DHT22;3730;50.856;12.776;2023-04-15T02:22:01;6.20;99.90
7378;DHT22;3730;50.856;12.776;2023-04-15T02:24:29;6.10;99.90
7378;DHT22;3730;50.856;12.776;2023-04-15T02:26:56;6.90;99.90
7378;DHT22;3730;50.856;12.776;2023-04-15T02:29:21;7.20;99.90
7378;DHT22;3730;50.856;12.776;2023-04-15T02:31:48;6.20;99.90
7378;DHT22;3730;50.856;12.776;2023-04-15T02:34:14;6.30;99.90
7378;DHT22;3730;50.856;12.776;2023-04-15T02:36:39;6.10;99.90
7378;DHT22;3730;50.856;12.776;2023-04-15T02:39:05;6.30;99.90
7378;DHT22;3730;50.856;12.776;2023-04-15T02:41:31;6.10;99.90
7378;DHT22;3730;50.856;12.776;2023-04-15T02:43:57;6.40;99.90
7378;DHT22;3730;50.856;12.776;2023-04-15T02:46:22;5.90;99.90
7378;DHT22;3730;50.856;12.776;2023-04-15T02:48:49;6.00;99.90
7378;DHT22;3730;50.856;12.776;2023-04-15T02:51:16;6.20;99.90
7378;DHT22;3730;50.856;12.776;2023-04-15T02:53:44;6.10;99.90
7378;DHT22;3730;50.856;12.776;2023-04-15T02:56:10;6.10;99.90
7378;DHT22;3730;50.856;12.776;2023-04-15T02:58:36;6.10;99.90
7378;DHT22;3730;50.856;12.776;2023-04-15T03:01:01;6.20;99.90
7378;DHT22;3730;50.856;12.776;2023-04-15T03:03:27;6.50;99.90
7378;DHT22;3730;50.856;12.776;2023-04-15T03:05:53;5.60;99.90
7378;DHT22;3730;50.856;12.776;2023-04-15T03:08:19;6.20;99.90
7378;DHT22;3730;50.856;12.776;2023-04-15T03:10:45;7.80;99.90
7378;DHT22;3730;50.856;12.776;2023-04-15T03:13:12;6.70;99.90
7378;DHT22;3730;50.856;12.776;2023-04-15T03:15:37;8.30;99.90
7378;DHT22;3730;50.856;12.776;2023-04-15T03:18:03;7.00;99.90
7378;DHT22;3730;50.856;12.776;2023-04-15T03:20:28;6.00;99.90
7378;DHT22;3730;50.856;12.776;2023-04-15T03:22:54;6.00;99.90
7378;DHT22;3730;50.856;12.776;2023-04-15T03:25:20;6.10;99.90
7378;DHT22;3730;50.856;12.776;2023-04-15T03:27:45;6.20;99.90
7378;DHT22;3730;50.856;12.776;2023-04-15T03:30:11;6.30;99.90
7378;DHT22;3730;50.856;12.776;2023-04-15T03:32:37;6.10;99.90
7378;DHT22;3730;50.856;12.776;2023-04-15T03:35:03;6.10;99.90
7378;DHT22;3730;50.856;12.776;2023-04-15T03:37:29;6.20;99.90
7378;DHT22;3730;50.856;12.776;2023-04-15T03:39:55;6.20;99.90
7378;DHT22;3730;50.856;12.776;2023-04-15T03:42:20;6.20;99.90
7378;DHT22;3730;50.856;12.776;2023-04-15T03:44:46;6.10;99.90
7378;DHT22;3730;50.856;12.776;2023-04-15T03:47:12;6.50;99.90
7378;DHT22;3730;50.856;12.776;2023-04-15T03:49:37;6.50;99.90
7378;DHT22;3730;50.856;12.776;2023-04-15T03:52:03;6.60;99.90
7378;DHT22;3730;50.856;12.776;2023-04-15T03:54:29;6.10;99.90
7378;DHT22;3730;50.856;12.776;2023-04-15T03:56:54;6.90;99.90
7378;DHT22;3730;50.856;12.776;2023-04-15T03:59:21;6.10;99.90
7378;DHT22;3730;50.856;12.776;2023-04-15T04:01:46;6.10;99.90
7378;DHT22;3730;50.856;12.776;2023-04-15T04:04:12;6.20;99.90
7378;DHT22;3730;50.856;12.776;2023-04-15T04:06:38;7.30;99.90
7378;DHT22;3730;50.856;12.776;2023-04-15T04:09:03;6.30;99.90
7378;DHT22;3730;50.856;12.776;2023-04-15T04:11:29;7.20;99.90
7378;DHT22;3730;50.856;12.776;2023-04-15T04:13:56;7.10;99.90
7378;DHT22;3730;50.856;12.776;2023-04-15T04:16:21;6.40;99.90
7378;DHT22;3730;50.856;12.776;2023-04-15T04:18:47;6.50;99.90
7378;DHT22;3730;50.856;12.776;2023-04-15T04:21:12;8.30;99.90
7378;DHT22;3730;50.856;12.776;2023-04-15T04:23:38;6.50;99.90
7378;DHT22;3730;50.856;12.776;2023-04-15T04:26:04;6.80;99.90
7378;DHT22;3730;50.856;12.776;2023-04-15T04:28:29;6.60;99.90
7378;DHT22;3730;50.856;12.776;2023-04-15T04:30:55;7.10;99.90
7378;DHT22;3730;50.856;12.776;2023-04-15T04:33:21;7.10;99.90
7378;DHT22;3730;50.856;12.776;2023-04-15T04:35:47;6.90;99.90
7378;DHT22;3730;50.856;12.776;2023-04-15T04:38:12;6.50;99.90
7378;DHT22;3730;50.856;12.776;2023-04-15T04:40:38;6.40;99.90
7378;DHT22;3730;50.856;12.776;2023-04-15T04:43:03;6.60;99.90
7378;DHT22;3730;50.856;12.776;2023-04-15T04:45:29;6.80;99.90
7378;DHT22;3730;50.856;12.776;2023-04-15T04:47:55;6.40;99.90
7378;DHT22;3730;50.856;12.776;2023-04-15T04:50:20;8.40;99.90
7378;DHT22;3730;50.856;12.776;2023-04-15T04:52:46;6.20;99.90
7378;DHT22;3730;50.856;12.776;2023-04-15T04:55:12;6.60;99.90
7378;DHT22;3730;50.856;12.776;2023-04-15T04:57:37;7.00;99.90
7378;DHT22;3730;50.856;12.776;2023-04-15T05:00:07;8.70;99.90
7378;DHT22;3730;50.856;12.776;2023-04-15T05:02:33;6.20;99.90
7378;DHT22;3730;50.856;12.776;2023-04-15T05:04:59;6.20;99.90
7378;DHT22;3730;50.856;12.776;2023-04-15T05:07:25;6.70;99.90
7378;DHT22;3730;50.856;12.776;2023-04-15T05:09:51;6.30;99.90
7378;DHT22;3730;50.856;12.776;2023-04-15T05:12:17;6.30;99.90
7378;DHT22;3730;50.856;12.776;2023-04-15T05:14:43;6.30;99.90
7378;DHT22;3730;50.856;12.776;2023-04-15T05:17:09;6.20;99.90
7378;DHT22;3730;50.856;12.776;2023-04-15T05:19:35;6.00;99.90
7378;DHT22;3730;50.856;12.776;2023-04-15T05:22:01;6.20;99.90
7378;DHT22;3730;50.856;12.776;2023-04-15T05:24:26;6.00;99.90
7378;DHT22;3730;50.856;12.776;2023-04-15T05:26:52;6.00;99.90
7378;DHT22;3730;50.856;12.776;2023-04-15T05:29:18;6.40;99.90
7378;DHT22;3730;50.856;12.776;2023-04-15T05:31:43;6.30;99.90
7378;DHT22;3730;50.856;12.776;2023-04-15T05:34:09;6.10;99.90
7378;DHT22;3730;50.856;12.776;2023-04-15T05:36:36;6.90;99.90
7378;DHT22;3730;50.856;12.776;2023-04-15T05:39:02;8.20;99.90
7378;DHT22;3730;50.856;12.776;2023-04-15T05:41:28;6.00;99.90
7378;DHT22;3730;50.856;12.776;2023-04-15T05:43:54;6.30;99.90
7378;DHT22;3730;50.856;12.776;2023-04-15T05:46:20;6.00;99.90
7378;DHT22;3730;50.856;12.776;2023-04-15T05:48:47;6.30;99.90
7378;DHT22;3730;50.856;12.776;2023-04-15T05:51:12;7.40;99.90
7378;DHT22;3730;50.856;12.776;2023-04-15T05:53:38;6.10;99.90
7378;DHT22;3730;50.856;12.776;2023-04-15T05:56:06;6.10;99.90
7378;DHT22;3730;50.856;12.776;2023-04-15T05:58:31;6.20;99.90
7378;DHT22;3730;50.856;12.776;2023-04-15T06:00:57;6.20;99.90
7378;DHT22;3730;50.856;12.776;2023-04-15T06:03:23;6.20;99.90
7378;DHT22;3730;50.856;12.776;2023-04-15T06:05:48;6.10;99.90
7378;DHT22;3730;50.856;12.776;2023-04-15T06:08:14;6.50;99.90
7378;DHT22;3730;50.856;12.776;2023-04-15T06:10:39;6.50;99.90
7378;DHT22;3730;50.856;12.776;2023-04-15T06:13:06;6.10;99.90
7378;DHT22;3730;50.856;12.776;2023-04-15T06:15:32;6.20;99.90
7378;DHT22;3730;50.856;12.776;2023-04-15T06:17:58;6.00;99.90
7378;DHT22;3730;50.856;12.776;2023-04-15T06:20:23;6.00;99.90
7378;DHT22;3730;50.856;12.776;2023-04-15T06:22:49;6.10;99.90
7378;DHT22;3730;50.856;12.776;2023-04-15T06:25:15;6.50;99.90
7378;DHT22;3730;50.856;12.776;2023-04-15T06:27:41;6.20;99.90
7378;DHT22;3730;50.856;12.776;2023-04-15T06:30:07;6.20;99.90
7378;DHT22;3730;50.856;12.776;2023-04-15T06:32:33;6.20;99.90
7378;DHT22;3730;50.856;12.776;2023-04-15T06:34:59;6.30;99.90
7378;DHT22;3730;50.856;12.776;2023-04-15T06:37:24;6.20;99.90
7378;DHT22;3730;50.856;12.776;2023-04-15T06:39:50;6.60;99.90
7378;DHT22;3730;50.856;12.776;2023-04-15T06:42:16;6.30;99.90
7378;DHT22;3730;50.856;12.776;2023-04-15T06:44:41;6.30;99.90
7378;DHT22;3730;50.856;12.776;2023-04-15T06:47:07;6.40;99.90
7378;DHT22;3730;50.856;12.776;2023-04-15T06:49:33;7.20;99.90
7378;DHT22;3730;50.856;12.776;2023-04-15T06:52:00;5.10;99.90
7378;DHT22;3730;50.856;12.776;2023-04-15T06:54:26;7.10;99.90
7378;DHT22;3730;50.856;12.776;2023-04-15T06:56:51;6.50;99.90
7378;DHT22;3730;50.856;12.776;2023-04-15T06:59:17;6.50;99.90
7378;DHT22;3730;50.856;12.776;2023-04-15T07:01:43;6.70;99.90
7378;DHT22;3730;50.856;12.776;2023-04-15T07:04:09;7.50;99.90
7378;DHT22;3730;50.856;12.776;2023-04-15T07:06:35;6.40;99.90
7378;DHT22;3730;50.856;12.776;2023-04-15T07:09:01;6.50;99.90
7378;DHT22;3730;50.856;12.776;2023-04-15T07:11:27;6.50;99.90
7378;DHT22;3730;50.856;12.776;2023-04-15T07:13:53;6.40;99.90
7378;DHT22;3730;50.856;12.776;2023-04-15T07:16:19;6.50;99.90
7378;DHT22;3730;50.856;12.776;2023-04-15T07:18:44;8.70;99.90
7378;DHT22;3730;50.856;12.776;2023-04-15T07:21:10;7.00;99.90
7378;DHT22;3730;50.856;12.776;2023-04-15T07:23:36;7.30;99.90
7378;DHT22;3730;50.856;12.776;2023-04-15T07:26:02;7.70;99.90
7378;DHT22;3730;50.856;12.776;2023-04-15T07:28:28;6.40;99.90
7378;DHT22;3730;50.856;12.776;2023-04-15T07:30:54;6.40;99.90
7378;DHT22;3730;50.856;12.776;2023-04-15T07:33:21;6.40;99.90
7378;DHT22;3730;50.856;12.776;2023-04-15T07:35:47;7.00;99.90
7378;DHT22;3730;50.856;12.776;2023-04-15T07:38:12;6.40;99.90
7378;DHT22;3730;50.856;12.776;2023-04-15T07:40:38;7.20;99.90
7378;DHT22;3730;50.856;12.776;2023-04-15T07:43:04;6.20;99.90
7378;DHT22;3730;50.856;12.776;2023-04-15T07:45:31;6.20;99.90
7378;DHT22;3730;50.856;12.776;2023-04-15T07:47:56;6.30;99.90
7378;DHT22;3730;50.856;12.776;2023-04-15T07:50:22;7.50;99.90
7378;DHT22;3730;50.856;12.776;2023-04-15T07:52:49;6.40;99.90
7378;DHT22;3730;50.856;12.776;2023-04-15T07:55:15;7.10;99.90
7378;DHT22;3730;50.856;12.776;2023-04-15T07:57:44;6.50;99.90
7378;DHT22;3730;50.856;12.776;2023-04-15T08:00:10;6.50;99.90
7378;DHT22;3730;50.856;12.776;2023-04-15T08:02:35;6.50;99.90
7378;DHT22;3730;50.856;12.776;2023-04-15T08:05:02;7.50;99.90
7378;DHT22;3730;50.856;12.776;2023-04-15T08:07:28;6.60;99.90
7378;DHT22;3730;50.856;12.776;2023-04-15T08:09:54;6.80;99.90
7378;DHT22;3730;50.856;12.776;2023-04-15T08:12:20;7.40;99.90
7378;DHT22;3730;50.856;12.776;2023-04-15T08:14:46;6.70;99.90
7378;DHT22;3730;50.856;12.776;2023-04-15T08:17:12;6.60;99.90
7378;DHT22;3730;50.856;12.776;2023-04-15T08:19:37;6.60;99.90
7378;DHT22;3730;50.856;12.776;2023-04-15T08:22:03;6.70;99.90
7378;DHT22;3730;50.856;12.776;2023-04-15T08:24:30;8.70;99.90
7378;DHT22;3730;50.856;12.776;2023-04-15T08:26:55;7.90;99.90
7378;DHT22;3730;50.856;12.776;2023-04-15T08:29:22;6.70;99.90
7378;DHT22;3730;50.856;12.776;2023-04-15T08:31:47;9.00;99.90
7378;DHT22;3730;50.856;12.776;2023-04-15T08:34:13;9.10;99.90
7378;DHT22;3730;50.856;12.776;2023-04-15T08:36:41;7.00;99.90
7378;DHT22;3730;50.856;12.776;2023-04-15T08:39:07;6.80;99.90
7378;DHT22;3730;50.856;12.776;2023-04-15T08:41:44;7.30;99.90
7378;DHT22;3730;50.856;12.776;2023-04-15T08:44:13;6.80;99.90
7378;DHT22;3730;50.856;12.776;2023-04-15T08:46:40;7.50;99.90
7378;DHT22;3730;50.856;12.776;2023-04-15T08:49:09;7.20;99.90
7378;DHT22;3730;50.856;12.776;2023-04-15T08:51:37;6.90;99.90
7378;DHT22;3730;50.856;12.776;2023-04-15T08:54:04;6.90;99.90
7378;DHT22;3730;50.856;12.776;2023-04-15T08:56:30;7.50;99.90
7378;DHT22;3730;50.856;12.776;2023-04-15T08:59:00;7.00;99.90
7378;DHT22;3730;50.856;12.776;2023-04-15T09:01:26;7.80;99.90
7378;DHT22;3730;50.856;12.776;2023-04-15T09:03:52;7.60;99.90
7378;DHT22;3730;50.856;12.776;2023-04-15T09:06:21;7.80;99.90
7378;DHT22;3730;50.856;12.776;2023-04-15T09:08:48;7.50;99.90
7378;DHT22;3730;50.856;12.776;2023-04-15T09:11:13;7.10;99.90
7378;DHT22;3730;50.856;12.776;2023-04-15T09:13:39;7.70;99.90
7378;DHT22;3730;50.856;12.776;2023-04-15T09:16:05;8.70;99.90
7378;DHT22;3730;50.856;12.776;2023-04-15T09:18:34;8.00;99.90
7378;DHT22;3730;50.856;12.776;2023-04-15T09:21:08;9.50;99.90
7378;DHT22;3730;50.856;12.776;2023-04-15T09:23:39;7.90;99.90
7378;DHT22;3730;50.856;12.776;2023-04-15T09:26:06;7.10;99.90
7378;DHT22;3730;50.856;12.776;2023-04-15T09:28:32;7.40;99.90
7378;DHT22;3730;50.856;12.776;2023-04-15T09:31:01;7.10;99.90
7378;DHT22;3730;50.856;12.776;2023-04-15T09:33:28;7.10;99.90
7378;DHT22;3730;50.856;12.776;2023-04-15T09:36:03;7.10;99.90
7378;DHT22;3730;50.856;12.776;2023-04-15T09:38:30;7.20;99.90
7378;DHT22;3730;50.856;12.776;2023-04-15T09:40:56;7.30;99.90
7378;DHT22;3730;50.856;12.776;2023-04-15T09:43:25;7.20;99.90
7378;DHT22;3730;50.856;12.776;2023-04-15T09:46:01;8.00;99.90
7378;DHT22;3730;50.856;12.776;2023-04-15T09:48:27;7.30;99.90
7378;DHT22;3730;50.856;12.776;2023-04-15T09:50:57;7.30;99.90
7378;DHT22;3730;50.856;12.776;2023-04-15T09:53:23;7.60;99.90
7378;DHT22;3730;50.856;12.776;2023-04-15T09:55:54;7.30;99.90
7378;DHT22;3730;50.856;12.776;2023-04-15T09:58:26;7.60;99.90
7378;DHT22;3730;50.856;12.776;2023-04-15T10:00:53;7.30;99.90
7378;DHT22;3730;50.856;12.776;2023-04-15T10:08:20;8.10;99.90
7378;DHT22;3730;50.856;12.776;2023-04-15T10:10:47;7.90;99.90
7378;DHT22;3730;50.856;12.776;2023-04-15T10:13:16;7.50;99.90
7378;DHT22;3730;50.856;12.776;2023-04-15T10:15:43;8.40;99.90
7378;DHT22;3730;50.856;12.776;2023-04-15T10:18:14;7.60;99.90
7378;DHT22;3730;50.856;12.776;2023-04-15T10:20:40;7.60;99.90
7378;DHT22;3730;50.856;12.776;2023-04-15T10:23:07;7.60;99.90
7378;DHT22;3730;50.856;12.776;2023-04-15T10:25:34;7.60;99.90
7378;DHT22;3730;50.856;12.776;2023-04-15T10:28:01;9.30;99.90
7378;DHT22;3730;50.856;12.776;2023-04-15T10:30:28;7.60;99.90
7378;DHT22;3730;50.856;12.776;2023-04-15T10:32:54;7.70;99.90
7378;DHT22;3730;50.856;12.776;2023-04-15T10:35:21;7.90;99.90
7378;DHT22;3730;50.856;12.776;2023-04-15T10:37:47;7.80;99.90
7378;DHT22;3730;50.856;12.776;2023-04-15T10:40:29;7.70;99.90
7378;DHT22;3730;50.856;12.776;2023-04-15T10:43:00;7.80;99.90
7378;DHT22;3730;50.856;12.776;2023-04-15T10:45:31;8.90;99.90
7378;DHT22;3730;50.856;12.776;2023-04-15T10:48:01;7.80;99.90
7378;DHT22;3730;50.856;12.776;2023-04-15T10:50:30;7.80;99.90
7378;DHT22;3730;50.856;12.776;2023-04-15T10:52:56;8.30;99.90
7378;DHT22;3730;50.856;12.776;2023-04-15T10:55:24;7.90;99.90
7378;DHT22;3730;50.856;12.776;2023-04-15T10:57:52;8.00;99.90
7378;DHT22;3730;50.856;12.776;2023-04-15T11:00:19;8.30;99.90
7378;DHT22;3730;50.856;12.776;2023-04-15T11:05:17;8.10;99.90
7378;DHT22;3730;50.856;12.776;2023-04-15T11:13:02;8.10;99.90
7378;DHT22;3730;50.856;12.776;2023-04-15T11:18:16;8.20;99.90
7378;DHT22;3730;50.856;12.776;2023-04-15T11:20:48;8.10;99.90
7378;DHT22;3730;50.856;12.776;2023-04-15T11:23:18;8.20;99.90
7378;DHT22;3730;50.856;12.776;2023-04-15T11:25:44;8.20;99.90
7378;DHT22;3730;50.856;12.776;2023-04-15T11:28:12;8.20;99.90
7378;DHT22;3730;50.856;12.776;2023-04-15T11:30:38;8.20;99.90
7378;DHT22;3730;50.856;12.776;2023-04-15T11:33:10;8.70;99.90
7378;DHT22;3730;50.856;12.776;2023-04-15T11:35:36;8.30;99.90
7378;DHT22;3730;50.856;12.776;2023-04-15T11:38:08;8.30;99.90
7378;DHT22;3730;50.856;12.776;2023-04-15T11:40:35;8.30;99.90
7378;DHT22;3730;50.856;12.776;2023-04-15T11:43:18;8.30;99.90
7378;DHT22;3730;50.856;12.776;2023-04-15T11:48:17;8.50;99.90
7378;DHT22;3730;50.856;12.776;2023-04-15T11:50:43;8.50;99.90
7378;DHT22;3730;50.856;12.776;2023-04-15T11:53:11;8.40;99.90
7378;DHT22;3730;50.856;12.776;2023-04-15T11:55:49;8.40;99.90
7378;DHT22;3730;50.856;12.776;2023-04-15T11:58:16;8.40;99.90
7378;DHT22;3730;50.856;12.776;2023-04-15T12:00:53;8.40;99.90
7378;DHT22;3730;50.856;12.776;2023-04-15T12:03:29;8.50;99.90
7378;DHT22;3730;50.856;12.776;2023-04-15T12:06:07;8.50;99.90
7378;DHT22;3730;50.856;12.776;2023-04-15T12:09:02;8.50;99.90
7378;DHT22;3730;50.856;12.776;2023-04-15T12:11:29;8.60;99.90
7378;DHT22;3730;50.856;12.776;2023-04-15T12:14:26;8.90;99.90
7378;DHT22;3730;50.856;12.776;2023-04-15T12:17:04;8.50;99.90
7378;DHT22;3730;50.856;12.776;2023-04-15T12:19:37;8.50;99.90
7378;DHT22;3730;50.856;12.776;2023-04-15T12:22:08;8.50;99.90
7378;DHT22;3730;50.856;12.776;2023-04-15T12:24:35;8.50;99.90
7378;DHT22;3730;50.856;12.776;2023-04-15T12:27:09;8.50;99.90
7378;DHT22;3730;50.856;12.776;2023-04-15T12:29:37;8.50;99.90
7378;DHT22;3730;50.856;12.776;2023-04-15T12:32:11;8.50;99.90
7378;DHT22;3730;50.856;12.776;2023-04-15T12:34:41;8.50;99.90
7378;DHT22;3730;50.856;12.776;2023-04-15T12:37:09;8.50;99.90
7378;DHT22;3730;50.856;12.776;2023-04-15T12:39:37;8.60;99.90
7378;DHT22;3730;50.856;12.776;2023-04-15T12:42:04;8.60;99.90
7378;DHT22;3730;50.856;12.776;2023-04-15T12:44:30;9.70;99.90
7378;DHT22;3730;50.856;12.776;2023-04-15T12:46:57;8.60;99.90
7378;DHT22;3730;50.856;12.776;2023-04-15T12:49:24;8.70;99.90
7378;DHT22;3730;50.856;12.776;2023-04-15T12:51:53;8.60;99.90
7378;DHT22;3730;50.856;12.776;2023-04-15T12:54:19;8.60;99.90
7378;DHT22;3730;50.856;12.776;2023-04-15T12:56:47;8.60;99.90
7378;DHT22;3730;50.856;12.776;2023-04-15T12:59:14;8.60;99.90
7378;DHT22;3730;50.856;12.776;2023-04-15T13:01:40;8.60;99.90
7378;DHT22;3730;50.856;12.776;2023-04-15T13:04:06;8.70;99.90
7378;DHT22;3730;50.856;12.776;2023-04-15T13:06:32;8.60;99.90
7378;DHT22;3730;50.856;12.776;2023-04-15T13:08:58;8.60;99.90
7378;DHT22;3730;50.856;12.776;2023-04-15T13:11:26;10.20;99.90
7378;DHT22;3730;50.856;12.776;2023-04-15T13:13:53;8.50;99.90
7378;DHT22;3730;50.856;12.776;2023-04-15T13:16:20;9.60;99.90
7378;DHT22;3730;50.856;12.776;2023-04-15T13:18:47;8.50;99.90
7378;DHT22;3730;50.856;12.776;2023-04-15T13:21:13;8.50;99.90
7378;DHT22;3730;50.856;12.776;2023-04-15T13:23:40;8.50;99.90
7378;DHT22;3730;50.856;12.776;2023-04-15T13:26:06;8.50;99.90
7378;DHT22;3730;50.856;12.776;2023-04-15T13:28:32;8.60;99.90
7378;DHT22;3730;50.856;12.776;2023-04-15T13:30:58;9.60;99.90
7378;DHT22;3730;50.856;12.776;2023-04-15T13:33:25;9.10;99.90
7378;DHT22;3730;50.856;12.776;2023-04-15T13:35:50;8.70;99.90
7378;DHT22;3730;50.856;12.776;2023-04-15T13:38:16;8.80;99.90
7378;DHT22;3730;50.856;12.776;2023-04-15T13:40:41;9.60;99.90
7378;DHT22;3730;50.856;12.776;2023-04-15T13:43:07;10.10;99.90
7378;DHT22;3730;50.856;12.776;2023-04-15T13:45:33;8.70;99.90
7378;DHT22;3730;50.856;12.776;2023-04-15T13:47:59;9.80;99.90
7378;DHT22;3730;50.856;12.776;2023-04-15T13:50:24;8.70;99.90
7378;DHT22;3730;50.856;12.776;2023-04-15T16:19:10;8.70;99.90
7378;DHT22;3730;50.856;12.776;2023-04-15T16:21:35;10.70;99.90
7378;DHT22;3730;50.856;12.776;2023-04-15T16:24:01;9.60;99.90
7378;DHT22;3730;50.856;12.776;2023-04-15T16:26:27;9.50;99.90
7378;DHT22;3730;50.856;12.776;2023-04-15T16:28:53;9.50;99.90
7378;DHT22;3730;50.856;12.776;2023-04-15T16:31:18;9.50;99.90
7378;DHT22;3730;50.856;12.776;2023-04-15T16:33:44;9.50;99.90
7378;DHT22;3730;50.856;12.776;2023-04-15T16:36:10;9.50;99.90
7378;DHT22;3730;50.856;12.776;2023-04-15T16:38:35;9.60;99.90
7378;DHT22;3730;50.856;12.776;2023-04-15T16:41:01;9.60;99.90
7378;DHT22;3730;50.856;12.776;2023-04-15T16:43:27;9.60;99.90
7378;DHT22;3730;50.856;12.776;2023-04-15T16:45:53;9.70;99.90
7378;DHT22;3730;50.856;12.776;2023-04-15T16:48:19;9.70;99.90
7378;DHT22;3730;50.856;12.776;2023-04-15T16:50:46;8.80;99.90
7378;DHT22;3730;50.856;12.776;2023-04-15T16:53:14;9.70;99.90
7378;DHT22;3730;50.856;12.776;2023-04-15T16:55:40;9.70;99.90
7378;DHT22;3730;50.856;12.776;2023-04-15T16:58:05;9.70;99.90
7378;DHT22;3730;50.856;12.776;2023-04-15T17:00:31;9.80;99.90
7378;DHT22;3730;50.856;12.776;2023-04-15T17:02:58;9.80;99.90
7378;DHT22;3730;50.856;12.776;2023-04-15T17:05:27;9.80;99.90
7378;DHT22;3730;50.856;12.776;2023-04-15T17:07:53;9.90;99.90
7378;DHT22;3730;50.856;12.776;2023-04-15T17:10:19;10.20;99.90
7378;DHT22;3730;50.856;12.776;2023-04-15T17:12:45;10.10;99.90
7378;DHT22;3730;50.856;12.776;2023-04-15T17:15:10;9.90;99.90
7378;DHT22;3730;50.856;12.776;2023-04-15T17:17:36;9.90;99.90
7378;DHT22;3730;50.856;12.776;2023-04-15T17:20:01;9.90;99.90
7378;DHT22;3730;50.856;12.776;2023-04-15T17:22:28;9.90;99.90
7378;DHT22;3730;50.856;12.776;2023-04-15T17:24:53;9.80;99.90
7378;DHT22;3730;50.856;12.776;2023-04-15T17:27:19;10.30;99.90
7378;DHT22;3730;50.856;12.776;2023-04-15T17:29:45;9.90;99.90
7378;DHT22;3730;50.856;12.776;2023-04-15T17:32:11;12.60;99.90
7378;DHT22;3730;50.856;12.776;2023-04-15T17:34:38;9.80;99.90
7378;DHT22;3730;50.856;12.776;2023-04-15T17:37:03;9.80;99.90
7378;DHT22;3730;50.856;12.776;2023-04-15T17:39:29;9.80;99.90
7378;DHT22;3730;50.856;12.776;2023-04-15T17:41:56;9.90;99.90
7378;DHT22;3730;50.856;12.776;2023-04-15T17:44:22;9.80;99.90
7378;DHT22;3730;50.856;12.776;2023-04-15T17:46:47;9.80;99.90
7378;DHT22;3730;50.856;12.776;2023-04-15T17:49:13;9.80;99.90
7378;DHT22;3730;50.856;12.776;2023-04-15T17:51:39;9.80;99.90
7378;DHT22;3730;50.856;12.776;2023-04-15T17:54:04;9.70;99.90
7378;DHT22;3730;50.856;12.776;2023-04-15T17:56:30;9.70;99.90
7378;DHT22;3730;50.856;12.776;2023-04-15T17:58:57;9.70;99.90
7378;DHT22;3730;50.856;12.776;2023-04-15T18:01:24;9.80;99.90
7378;DHT22;3730;50.856;12.776;2023-04-15T18:03:50;9.70;99.90
7378;DHT22;3730;50.856;12.776;2023-04-15T18:06:15;9.90;99.90
7378;DHT22;3730;50.856;12.776;2023-04-15T18:08:41;9.70;99.90
7378;DHT22;3730;50.856;12.776;2023-04-15T18:11:07;9.70;99.90
7378;DHT22;3730;50.856;12.776;2023-04-15T18:13:33;9.70;99.90
7378;DHT22;3730;50.856;12.776;2023-04-15T18:15:58;9.70;99.90
7378;DHT22;3730;50.856;12.776;2023-04-15T18:18:24;9.70;99.90
7378;DHT22;3730;50.856;12.776;2023-04-15T18:20:50;9.70;99.90
7378;DHT22;3730;50.856;12.776;2023-04-15T18:23:16;9.60;99.90
7378;DHT22;3730;50.856;12.776;2023-04-15T18:25:41;9.80;99.90
7378;DHT22;3730;50.856;12.776;2023-04-15T18:28:08;9.60;99.90
7378;DHT22;3730;50.856;12.776;2023-04-15T18:30:34;9.60;99.90
7378;DHT22;3730;50.856;12.776;2023-04-15T18:33:00;9.60;99.90
7378;DHT22;3730;50.856;12.776;2023-04-15T18:35:26;9.50;99.90
7378;DHT22;3730;50.856;12.776;2023-04-15T18:37:57;10.60;99.90
7378;DHT22;3730;50.856;12.776;2023-04-15T18:40:25;9.50;99.90
7378;DHT22;3730;50.856;12.776;2023-04-15T18:42:51;9.50;99.90